ZSPD/PVG METAR and TAF weather

Enter ICAO airport designator
Station Type Date Time Source
ZSPD METAR 2022/01/19 20:30 UTC NOAA

ZSPD 192030Z 36004MPS 7000 BKN023 06/03 Q1027 NOSIG


Station Type Date Time Source
ZSPD Decoded METAR 2022/01/19 20:30 UTC NOAA

Shanghai / Pudong, China (ZSPD) 31-07N 121-46E
Jan 19, 2022 - 03:30 PM EST / 2022.01.19 2030 UTC
Wind: from the N (360 degrees) at 9 MPH (8 KT):0
Visibility: 4 mile(s):0
Sky conditions: mostly cloudy
Temperature: 42 F (6 C)
Dew Point: 37 F (3 C)
Relative Humidity: 81%
Pressure (altimeter): 30.33 in. Hg (1027 hPa)
ob: ZSPD 192030Z 36004MPS 7000 BKN023 06/03 Q1027 NOSIG
cycle: 20

Station Type Date Time Source
ZSPD TAF 2022/01/19 18:03 UTC NOAA

TAF TAF ZSPD 191503Z 1918/2018 04004MPS 6000 BKN030 TX08/2006Z TN05/1921Z

Example: see airport list